Terminal Aerodrome Forecast
Issued by NWS

Home | Current Version | Previous Version | Text Only | Print | Product List | Glossary On
Versions: 1 2 3 4 5 6 7 8 9 10 11 12
000
FTUS46 KLOX 291733
TAFLGB
TAF
KLGB 291733Z 2918/3018 VRB05KT P6SM SKC
     FM292000 19007KT P6SM SKC
     FM292300 29009KT P6SM SKC
     FM300500 VRB03KT P6SM SKC
     FM300900 VRB03KT P6SM BKN015
     FM301200 VRB03KT P6SM OVC012=

USA.gov is the U.S. government's official web portal to all federal, state and local government web resources and services.